createdAt,value
2022-11-06T00:01:26.118Z,10.75
2022-11-06T00:06:46.429Z,10.75
2022-11-06T00:11:50.138Z,10.73
2022-11-06T00:16:51.707Z,10.70
2022-11-06T00:21:53.220Z,10.67
2022-11-06T00:26:54.864Z,10.60
2022-11-06T00:31:56.354Z,10.56
2022-11-06T00:36:58.079Z,10.55
2022-11-06T00:41:59.641Z,10.53
2022-11-06T00:47:01.362Z,10.51
2022-11-06T00:52:02.917Z,10.52
2022-11-06T00:57:04.406Z,10.53
2022-11-06T01:02:06.105Z,10.51
2022-11-06T01:07:07.685Z,10.49
2022-11-06T01:12:13.752Z,10.43
2022-11-06T01:17:15.858Z,10.38
2022-11-06T01:22:17.771Z,10.30
2022-11-06T01:27:27.546Z,10.23
2022-11-06T01:32:29.297Z,10.20
2022-11-06T01:37:30.774Z,10.16
2022-11-06T01:42:32.255Z,10.10
2022-11-06T01:47:33.761Z,10.03
2022-11-06T01:52:36.081Z,9.99
2022-11-06T01:57:38.049Z,9.97
2022-11-06T02:02:40.602Z,9.95
2022-11-06T02:07:43.449Z,9.95
2022-11-06T02:13:12.586Z,9.93
2022-11-06T02:18:43.328Z,9.90
2022-11-06T02:23:50.900Z,9.87
2022-11-06T02:29:04.218Z,9.85
2022-11-06T02:34:11.764Z,9.81
2022-11-06T02:39:18.887Z,9.79
2022-11-06T02:44:25.024Z,9.74
2022-11-06T02:49:36.784Z,9.72
2022-11-06T02:54:43.210Z,9.72
2022-11-06T03:00:10.540Z,9.72
2022-11-06T03:05:21.641Z,9.73
2022-11-06T03:10:30.433Z,9.75
2022-11-06T03:15:39.082Z,9.75
2022-11-06T03:20:54.072Z,9.74
2022-11-06T03:26:00.065Z,9.74
2022-11-06T03:31:05.186Z,9.73
2022-11-06T03:36:13.434Z,9.72
2022-11-06T03:41:22.750Z,9.70
2022-11-06T03:46:26.966Z,9.67
2022-11-06T03:51:34.618Z,9.69
2022-11-06T03:56:44.110Z,9.67
2022-11-06T04:01:47.703Z,9.67
2022-11-06T04:07:25.714Z,9.63
2022-11-06T04:12:48.963Z,9.63
2022-11-06T04:17:50.779Z,9.62
2022-11-06T04:23:08.524Z,9.61
2022-11-06T04:28:29.427Z,9.60
2022-11-06T04:33:43.091Z,9.58
2022-11-06T04:39:01.047Z,9.59
2022-11-06T04:44:27.462Z,9.58
2022-11-06T04:49:32.358Z,9.57
2022-11-06T04:54:34.909Z,9.53
2022-11-06T04:59:37.295Z,9.53
2022-11-06T05:04:38.802Z,9.51
2022-11-06T05:09:41.131Z,9.50
2022-11-06T05:14:42.633Z,9.47
2022-11-06T05:19:44.118Z,9.46
2022-11-06T05:24:45.724Z,9.41
2022-11-06T05:29:47.237Z,9.39
2022-11-06T05:34:48.704Z,9.32
2022-11-06T05:39:50.252Z,9.30
2022-11-06T05:44:51.733Z,9.30
2022-11-06T05:49:53.297Z,9.29
2022-11-06T05:54:54.845Z,9.31
2022-11-06T05:59:56.319Z,9.32
2022-11-06T06:04:57.828Z,9.31
2022-11-06T06:09:59.405Z,9.28
2022-11-06T06:15:00.946Z,9.24
2022-11-06T06:20:02.461Z,9.22
2022-11-06T06:25:04.222Z,9.20
2022-11-06T06:30:06.398Z,9.17
2022-11-06T06:35:08.680Z,9.11
2022-11-06T06:40:10.667Z,9.09
2022-11-06T06:45:12.201Z,9.07
2022-11-06T06:50:13.694Z,9.06
2022-11-06T06:55:15.255Z,9.04
2022-11-06T07:00:16.918Z,9.06
2022-11-06T07:05:18.981Z,9.07
2022-11-06T07:10:20.570Z,9.09
2022-11-06T07:15:22.065Z,9.09
2022-11-06T07:20:23.555Z,9.14
2022-11-06T07:25:26.210Z,9.17
2022-11-06T07:30:28.133Z,9.21
2022-11-06T07:35:30.289Z,9.25
2022-11-06T07:40:33.442Z,9.29
2022-11-06T07:45:35.542Z,9.34
2022-11-06T07:50:37.066Z,9.39
2022-11-06T07:55:42.170Z,9.44
2022-11-06T08:00:52.513Z,9.49
2022-11-06T08:05:54.091Z,9.54
2022-11-06T08:10:55.571Z,9.59
2022-11-06T08:15:57.059Z,9.65
2022-11-06T08:20:58.560Z,9.68
2022-11-06T08:26:03.065Z,9.73
2022-11-06T08:31:08.789Z,9.76
2022-11-06T08:36:10.555Z,9.79
2022-11-06T08:41:12.258Z,9.82
2022-11-06T08:46:15.237Z,9.86
2022-11-06T08:51:16.846Z,9.88
2022-11-06T08:56:18.425Z,9.91
2022-11-06T09:01:20.182Z,9.93
2022-11-06T09:06:21.852Z,9.95
2022-11-06T09:11:23.428Z,9.99
2022-11-06T09:16:26.254Z,10.02
2022-11-06T09:21:27.875Z,10.06
2022-11-06T09:26:29.360Z,10.10
2022-11-06T09:31:30.928Z,10.11
2022-11-06T09:36:32.460Z,10.15
2022-11-06T09:41:50.970Z,10.17
2022-11-06T09:46:54.008Z,10.18
2022-11-06T09:52:13.389Z,10.20
2022-11-06T09:57:23.285Z,10.20
2022-11-06T10:02:51.262Z,10.20
2022-11-06T10:07:58.987Z,10.23
2022-11-06T10:13:17.547Z,10.24
2022-11-06T10:18:42.410Z,10.26
2022-11-06T10:23:49.199Z,10.25
2022-11-06T10:29:15.733Z,10.27
2022-11-06T10:34:29.250Z,10.30
2022-11-06T10:39:33.848Z,10.32
2022-11-06T10:44:39.311Z,10.37
2022-11-06T10:49:53.821Z,10.44
2022-11-06T10:55:09.906Z,10.48
2022-11-06T11:00:14.009Z,10.54
2022-11-06T11:05:24.657Z,10.59
2022-11-06T11:10:29.311Z,10.66
2022-11-06T11:15:33.934Z,10.70
2022-11-06T11:20:38.041Z,10.75
2022-11-06T11:25:41.093Z,10.79
2022-11-06T11:31:06.125Z,10.87
2022-11-06T11:36:09.962Z,10.90
2022-11-06T11:41:23.866Z,10.93
2022-11-06T11:46:25.747Z,10.93
2022-11-06T11:51:35.254Z,10.96
2022-11-06T11:57:05.816Z,10.98
2022-11-06T12:02:26.469Z,11.00
2022-11-06T12:07:32.581Z,11.02
2022-11-06T12:12:36.426Z,11.02
2022-11-06T12:17:40.513Z,11.03
2022-11-06T12:22:45.536Z,11.03
2022-11-06T12:27:52.786Z,11.09
2022-11-06T12:32:54.243Z,11.12
2022-11-06T12:38:10.732Z,11.17
2022-11-06T12:43:17.821Z,11.18
2022-11-06T12:48:32.707Z,11.20
2022-11-06T12:54:07.877Z,11.23
2022-11-06T12:59:21.815Z,11.26
2022-11-06T13:04:43.566Z,11.30
2022-11-06T13:09:57.747Z,11.36
2022-11-06T13:15:22.343Z,11.43
2022-11-06T13:20:42.789Z,11.47
2022-11-06T13:26:21.899Z,11.52
2022-11-06T13:31:30.830Z,11.53
2022-11-06T13:36:37.149Z,11.57
2022-11-06T13:41:38.634Z,11.60
2022-11-06T13:46:48.173Z,11.66
2022-11-06T13:51:55.542Z,11.75
2022-11-06T13:57:27.640Z,11.82
2022-11-06T14:02:32.194Z,11.90
2022-11-06T14:07:35.537Z,11.99
2022-11-06T14:12:37.249Z,12.08
2022-11-06T14:17:38.831Z,12.17
2022-11-06T14:22:40.376Z,12.26
2022-11-06T14:27:41.813Z,12.35
2022-11-06T14:32:45.822Z,12.42
2022-11-06T14:37:48.629Z,12.49
2022-11-06T14:42:50.800Z,12.54
2022-11-06T14:47:56.421Z,12.58
2022-11-06T14:53:04.908Z,12.56
2022-11-06T14:58:15.781Z,12.51
2022-11-06T15:03:29.234Z,12.48
2022-11-06T15:08:49.269Z,12.42
2022-11-06T15:13:50.866Z,12.33
2022-11-06T15:18:53.083Z,12.26
2022-11-06T15:24:05.940Z,12.20
2022-11-06T15:29:22.637Z,12.11
2022-11-06T15:34:31.158Z,12.03
2022-11-06T15:39:40.682Z,11.97
2022-11-06T15:44:44.722Z,11.88
2022-11-06T15:49:46.285Z,11.82
2022-11-06T15:54:56.748Z,11.76
2022-11-06T16:00:23.731Z,11.68
2022-11-06T16:05:28.497Z,11.63
2022-11-06T16:10:30.228Z,11.59
2022-11-06T16:15:49.768Z,11.54
2022-11-06T16:20:53.784Z,11.48
2022-11-06T16:26:02.209Z,11.44
2022-11-06T16:31:06.948Z,11.36
2022-11-06T16:36:11.490Z,11.33
2022-11-06T16:41:35.015Z,11.28
2022-11-06T16:47:04.396Z,11.19
2022-11-06T16:52:29.806Z,11.12
2022-11-06T16:57:36.738Z,11.08
2022-11-06T17:02:38.737Z,11.04
2022-11-06T17:07:41.179Z,11.01
2022-11-06T17:12:42.675Z,10.99
2022-11-06T17:17:44.197Z,10.98
2022-11-06T17:22:46.188Z,10.96
2022-11-06T17:27:47.731Z,10.95
2022-11-06T17:32:49.233Z,10.91
2022-11-06T17:37:50.776Z,10.88
2022-11-06T17:42:52.294Z,10.84
2022-11-06T17:47:53.940Z,10.83
2022-11-06T17:52:55.659Z,10.83
2022-11-06T17:57:57.307Z,10.83
2022-11-06T18:03:02.019Z,10.83
2022-11-06T18:08:03.956Z,10.82
2022-11-06T18:13:07.000Z,10.79
2022-11-06T18:18:08.514Z,10.76
2022-11-06T18:23:10.032Z,10.77
2022-11-06T18:28:11.629Z,10.76
2022-11-06T18:33:13.237Z,10.76
2022-11-06T18:38:15.383Z,10.76
2022-11-06T18:43:17.121Z,10.76
2022-11-06T18:48:21.697Z,10.77
2022-11-06T18:53:23.905Z,10.77
2022-11-06T18:58:25.489Z,10.78
2022-11-06T19:03:27.058Z,10.77
2022-11-06T19:08:28.665Z,10.77
2022-11-06T19:13:30.675Z,10.77
2022-11-06T19:18:34.690Z,10.71
2022-11-06T19:23:38.669Z,10.69
2022-11-06T19:28:40.527Z,10.68
2022-11-06T19:33:42.082Z,10.65
2022-11-06T19:38:43.684Z,10.68
2022-11-06T19:43:45.235Z,10.68
2022-11-06T19:48:46.829Z,10.69
2022-11-06T19:53:51.965Z,10.67
2022-11-06T19:58:53.728Z,10.67
2022-11-06T20:03:55.278Z,10.64
2022-11-06T20:08:56.892Z,10.65
2022-11-06T20:13:59.591Z,10.64
2022-11-06T20:19:01.933Z,10.61
2022-11-06T20:24:03.802Z,10.55
2022-11-06T20:29:06.096Z,10.55
2022-11-06T20:34:08.090Z,10.52
2022-11-06T20:39:09.985Z,10.51
2022-11-06T20:44:11.468Z,10.53
2022-11-06T20:49:12.962Z,10.50
2022-11-06T20:54:14.510Z,10.48
2022-11-06T20:59:17.764Z,10.45
2022-11-06T21:04:19.493Z,10.48
2022-11-06T21:09:22.896Z,10.49
2022-11-06T21:14:24.457Z,10.54
2022-11-06T21:19:26.028Z,10.55
2022-11-06T21:24:27.525Z,10.50
2022-11-06T21:29:29.158Z,10.47
2022-11-06T21:34:30.687Z,10.46
2022-11-06T21:39:36.173Z,10.44
2022-11-06T21:44:38.189Z,10.40
2022-11-06T21:49:39.764Z,10.40
2022-11-06T21:55:00.133Z,10.37
2022-11-06T22:00:01.772Z,10.38
2022-11-06T22:05:13.432Z,10.31
2022-11-06T22:10:15.118Z,10.30
2022-11-06T22:15:16.788Z,10.25
2022-11-06T22:20:18.451Z,10.26
2022-11-06T22:25:20.062Z,10.26
2022-11-06T22:30:21.604Z,10.28
2022-11-06T22:35:23.150Z,10.24
2022-11-06T22:40:24.681Z,10.16
2022-11-06T22:45:26.254Z,10.10
2022-11-06T22:50:27.847Z,10.03
2022-11-06T22:55:29.464Z,9.99
2022-11-06T23:00:31.092Z,9.98
2022-11-06T23:05:32.843Z,10.04
2022-11-06T23:10:36.786Z,10.10
2022-11-06T23:15:38.308Z,10.14
2022-11-06T23:20:39.835Z,10.18
2022-11-06T23:25:41.351Z,10.20
2022-11-06T23:30:43.125Z,10.23
2022-11-06T23:35:44.733Z,10.28
2022-11-06T23:40:46.305Z,10.32
2022-11-06T23:45:51.366Z,10.33
2022-11-06T23:50:52.955Z,10.35
2022-11-06T23:55:54.548Z,10.34
